sensor_id;sensor_type;location;lat;lon;timestamp;temperature;humidity
70421;SHT31;57848;51.938;15.520;2023-06-22T00:00:57;21.61;79.07
70421;SHT31;57848;51.938;15.520;2023-06-22T00:03:23;21.58;79.13
70421;SHT31;57848;51.938;15.520;2023-06-22T00:05:50;21.62;78.90
70421;SHT31;57848;51.938;15.520;2023-06-22T00:08:16;21.59;78.99
70421;SHT31;57848;51.938;15.520;2023-06-22T00:10:43;21.61;79.06
70421;SHT31;57848;51.938;15.520;2023-06-22T00:13:09;21.52;79.32
70421;SHT31;57848;51.938;15.520;2023-06-22T00:15:36;21.55;79.31
70421;SHT31;57848;51.938;15.520;2023-06-22T00:18:02;21.45;79.60
70421;SHT31;57848;51.938;15.520;2023-06-22T00:20:28;21.44;79.62
70421;SHT31;57848;51.938;15.520;2023-06-22T00:22:55;21.46;79.52
70421;SHT31;57848;51.938;15.520;2023-06-22T00:25:21;21.42;79.71
70421;SHT31;57848;51.938;15.520;2023-06-22T00:27:47;21.31;80.14
70421;SHT31;57848;51.938;15.520;2023-06-22T00:30:13;21.28;80.41
70421;SHT31;57848;51.938;15.520;2023-06-22T00:32:38;21.21;80.25
70421;SHT31;57848;51.938;15.520;2023-06-22T00:35:04;21.21;80.59
70421;SHT31;57848;51.938;15.520;2023-06-22T00:37:30;21.28;80.23
70421;SHT31;57848;51.938;15.520;2023-06-22T00:39:56;21.24;80.50
70421;SHT31;57848;51.938;15.520;2023-06-22T00:42:22;21.20;80.67
70421;SHT31;57848;51.938;15.520;2023-06-22T00:44:47;21.15;80.85
70421;SHT31;57848;51.938;15.520;2023-06-22T00:47:14;21.18;80.74
70421;SHT31;57848;51.938;15.520;2023-06-22T00:49:41;21.18;80.63
70421;SHT31;57848;51.938;15.520;2023-06-22T00:52:07;21.12;80.84
70421;SHT31;57848;51.938;15.520;2023-06-22T00:54:36;21.07;81.00
70421;SHT31;57848;51.938;15.520;2023-06-22T00:57:02;21.11;80.90
70421;SHT31;57848;51.938;15.520;2023-06-22T00:59:28;21.14;80.97
70421;SHT31;57848;51.938;15.520;2023-06-22T01:01:54;21.03;81.46
70421;SHT31;57848;51.938;15.520;2023-06-22T01:04:26;21.01;81.52
70421;SHT31;57848;51.938;15.520;2023-06-22T01:07:07;21.04;81.38
70421;SHT31;57848;51.938;15.520;2023-06-22T01:10:03;21.04;81.39
70421;SHT31;57848;51.938;15.520;2023-06-22T01:12:30;20.90;81.95
70421;SHT31;57848;51.938;15.520;2023-06-22T01:15:20;21.01;81.74
70421;SHT31;57848;51.938;15.520;2023-06-22T01:17:48;20.94;81.77
70421;SHT31;57848;51.938;15.520;2023-06-22T01:20:15;20.86;81.79
70421;SHT31;57848;51.938;15.520;2023-06-22T01:23:11;20.77;81.94
70421;SHT31;57848;51.938;15.520;2023-06-22T01:25:46;20.74;82.18
70421;SHT31;57848;51.938;15.520;2023-06-22T01:30:48;20.79;82.45
70421;SHT31;57848;51.938;15.520;2023-06-22T01:33:15;20.72;82.90
70421;SHT31;57848;51.938;15.520;2023-06-22T01:35:41;20.73;82.72
70421;SHT31;57848;51.938;15.520;2023-06-22T01:38:08;20.70;82.69
70421;SHT31;57848;51.938;15.520;2023-06-22T01:40:33;20.62;82.65
70421;SHT31;57848;51.938;15.520;2023-06-22T01:43:01;20.56;83.01
70421;SHT31;57848;51.938;15.520;2023-06-22T01:45:27;20.62;83.02
70421;SHT31;57848;51.938;15.520;2023-06-22T01:47:54;20.63;83.11
70421;SHT31;57848;51.938;15.520;2023-06-22T01:50:19;20.63;83.16
70421;SHT31;57848;51.938;15.520;2023-06-22T01:52:45;20.62;83.32
70421;SHT31;57848;51.938;15.520;2023-06-22T01:55:10;20.52;83.31
70421;SHT31;57848;51.938;15.520;2023-06-22T01:57:36;20.46;83.21
70421;SHT31;57848;51.938;15.520;2023-06-22T02:00:18;20.40;83.44
70421;SHT31;57848;51.938;15.520;2023-06-22T02:02:53;20.36;83.49
70421;SHT31;57848;51.938;15.520;2023-06-22T02:05:19;20.33;83.80
70421;SHT31;57848;51.938;15.520;2023-06-22T02:07:59;20.28;84.15
70421;SHT31;57848;51.938;15.520;2023-06-22T02:10:26;20.24;84.24
70421;SHT31;57848;51.938;15.520;2023-06-22T02:12:57;20.21;84.57
70421;SHT31;57848;51.938;15.520;2023-06-22T02:15:23;20.22;84.69
70421;SHT31;57848;51.938;15.520;2023-06-22T02:17:52;20.15;84.64
70421;SHT31;57848;51.938;15.520;2023-06-22T02:20:18;20.12;84.56
70421;SHT31;57848;51.938;15.520;2023-06-22T02:22:43;20.15;84.87
70421;SHT31;57848;51.938;15.520;2023-06-22T02:25:10;20.18;84.28
70421;SHT31;57848;51.938;15.520;2023-06-22T02:27:35;20.19;84.34
70421;SHT31;57848;51.938;15.520;2023-06-22T02:30:01;20.11;84.62
70421;SHT31;57848;51.938;15.520;2023-06-22T02:32:26;20.11;84.56
70421;SHT31;57848;51.938;15.520;2023-06-22T02:34:52;20.09;84.63
70421;SHT31;57848;51.938;15.520;2023-06-22T02:37:18;20.04;84.65
70421;SHT31;57848;51.938;15.520;2023-06-22T02:39:43;20.05;84.72
70421;SHT31;57848;51.938;15.520;2023-06-22T02:42:09;20.09;84.77
70421;SHT31;57848;51.938;15.520;2023-06-22T02:44:36;20.12;84.65
70421;SHT31;57848;51.938;15.520;2023-06-22T02:47:01;20.08;84.58
70421;SHT31;57848;51.938;15.520;2023-06-22T02:49:27;20.06;84.53
70421;SHT31;57848;51.938;15.520;2023-06-22T02:51:53;20.06;84.71
70421;SHT31;57848;51.938;15.520;2023-06-22T02:54:21;20.01;84.88
70421;SHT31;57848;51.938;15.520;2023-06-22T02:56:48;19.96;85.05
70421;SHT31;57848;51.938;15.520;2023-06-22T02:59:14;19.95;85.15
70421;SHT31;57848;51.938;15.520;2023-06-22T03:01:39;19.94;85.44
70421;SHT31;57848;51.938;15.520;2023-06-22T03:04:09;19.89;85.72
70421;SHT31;57848;51.938;15.520;2023-06-22T03:06:35;19.91;85.60
70421;SHT31;57848;51.938;15.520;2023-06-22T03:09:03;19.94;85.68
70421;SHT31;57848;51.938;15.520;2023-06-22T03:11:31;19.92;85.70
70421;SHT31;57848;51.938;15.520;2023-06-22T03:13:58;19.91;85.80
70421;SHT31;57848;51.938;15.520;2023-06-22T03:16:23;19.85;85.92
70421;SHT31;57848;51.938;15.520;2023-06-22T03:18:49;19.88;85.92
70421;SHT31;57848;51.938;15.520;2023-06-22T03:21:14;19.89;85.84
70421;SHT31;57848;51.938;15.520;2023-06-22T03:23:41;19.88;86.19
70421;SHT31;57848;51.938;15.520;2023-06-22T03:26:06;19.86;86.33
70421;SHT31;57848;51.938;15.520;2023-06-22T03:28:32;19.86;86.39
70421;SHT31;57848;51.938;15.520;2023-06-22T03:30:58;19.85;86.54
70421;SHT31;57848;51.938;15.520;2023-06-22T03:33:23;19.88;86.59
70421;SHT31;57848;51.938;15.520;2023-06-22T03:35:49;19.86;86.72
70421;SHT31;57848;51.938;15.520;2023-06-22T03:38:16;19.89;86.75
70421;SHT31;57848;51.938;15.520;2023-06-22T03:40:41;19.96;86.78
70421;SHT31;57848;51.938;15.520;2023-06-22T03:43:07;20.02;86.75
70421;SHT31;57848;51.938;15.520;2023-06-22T03:45:32;20.06;86.93
70421;SHT31;57848;51.938;15.520;2023-06-22T03:47:57;20.04;86.97
70421;SHT31;57848;51.938;15.520;2023-06-22T03:50:23;20.06;87.24
70421;SHT31;57848;51.938;15.520;2023-06-22T03:52:48;20.09;87.23
70421;SHT31;57848;51.938;15.520;2023-06-22T03:55:14;20.14;87.22
70421;SHT31;57848;51.938;15.520;2023-06-22T03:57:39;20.19;87.05
70421;SHT31;57848;51.938;15.520;2023-06-22T04:00:05;20.22;87.38
70421;SHT31;57848;51.938;15.520;2023-06-22T04:02:37;20.19;87.28
70421;SHT31;57848;51.938;15.520;2023-06-22T04:05:03;20.28;87.19
70421;SHT31;57848;51.938;15.520;2023-06-22T04:07:28;20.21;87.51
70421;SHT31;57848;51.938;15.520;2023-06-22T04:09:54;20.28;87.53
70421;SHT31;57848;51.938;15.520;2023-06-22T04:12:19;20.25;87.59
70421;SHT31;57848;51.938;15.520;2023-06-22T04:14:44;20.29;87.55
70421;SHT31;57848;51.938;15.520;2023-06-22T04:17:10;20.28;87.65
70421;SHT31;57848;51.938;15.520;2023-06-22T04:19:35;20.33;87.56
70421;SHT31;57848;51.938;15.520;2023-06-22T04:22:01;20.43;87.48
70421;SHT31;57848;51.938;15.520;2023-06-22T04:24:26;20.45;87.31
70421;SHT31;57848;51.938;15.520;2023-06-22T04:26:51;20.47;87.26
70421;SHT31;57848;51.938;15.520;2023-06-22T04:29:20;20.49;87.28
70421;SHT31;57848;51.938;15.520;2023-06-22T04:31:45;20.57;87.20
70421;SHT31;57848;51.938;15.520;2023-06-22T04:34:16;20.60;87.05
70421;SHT31;57848;51.938;15.520;2023-06-22T04:36:42;20.63;87.20
70421;SHT31;57848;51.938;15.520;2023-06-22T04:39:09;20.64;87.33
70421;SHT31;57848;51.938;15.520;2023-06-22T04:41:39;20.76;87.17
70421;SHT31;57848;51.938;15.520;2023-06-22T04:44:19;20.83;87.22
70421;SHT31;57848;51.938;15.520;2023-06-22T04:47:01;20.84;87.24
70421;SHT31;57848;51.938;15.520;2023-06-22T04:49:29;20.95;87.16
70421;SHT31;57848;51.938;15.520;2023-06-22T04:52:02;20.97;87.34
70421;SHT31;57848;51.938;15.520;2023-06-22T04:54:28;21.10;86.80
70421;SHT31;57848;51.938;15.520;2023-06-22T04:56:54;21.07;86.69
70421;SHT31;57848;51.938;15.520;2023-06-22T04:59:23;21.14;86.63
70421;SHT31;57848;51.938;15.520;2023-06-22T05:04:22;21.27;86.32
70421;SHT31;57848;51.938;15.520;2023-06-22T05:06:49;21.34;86.20
70421;SHT31;57848;51.938;15.520;2023-06-22T05:09:14;21.41;85.94
70421;SHT31;57848;51.938;15.520;2023-06-22T05:11:40;21.51;85.54
70421;SHT31;57848;51.938;15.520;2023-06-22T05:14:05;21.46;85.37
70421;SHT31;57848;51.938;15.520;2023-06-22T05:16:31;21.55;85.33
70421;SHT31;57848;51.938;15.520;2023-06-22T05:18:56;21.65;85.00
70421;SHT31;57848;51.938;15.520;2023-06-22T05:21:27;21.72;83.38
70421;SHT31;57848;51.938;15.520;2023-06-22T05:23:55;21.79;82.46
70421;SHT31;57848;51.938;15.520;2023-06-22T05:26:21;21.86;82.69
70421;SHT31;57848;51.938;15.520;2023-06-22T05:28:47;21.90;81.15
70421;SHT31;57848;51.938;15.520;2023-06-22T05:31:14;21.99;80.50
70421;SHT31;57848;51.938;15.520;2023-06-22T05:33:42;22.04;80.14
70421;SHT31;57848;51.938;15.520;2023-06-22T05:36:08;22.14;78.95
70421;SHT31;57848;51.938;15.520;2023-06-22T05:38:34;22.14;79.33
70421;SHT31;57848;51.938;15.520;2023-06-22T05:40:59;22.23;78.85
70421;SHT31;57848;51.938;15.520;2023-06-22T05:43:24;22.29;78.83
70421;SHT31;57848;51.938;15.520;2023-06-22T05:45:50;22.39;77.57
70421;SHT31;57848;51.938;15.520;2023-06-22T05:48:16;22.37;77.04
70421;SHT31;57848;51.938;15.520;2023-06-22T05:50:42;22.40;77.00
70421;SHT31;57848;51.938;15.520;2023-06-22T05:53:07;22.45;76.38
70421;SHT31;57848;51.938;15.520;2023-06-22T05:55:33;22.45;76.72
70421;SHT31;57848;51.938;15.520;2023-06-22T05:57:58;22.47;76.77
70421;SHT31;57848;51.938;15.520;2023-06-22T06:00:24;22.50;76.37
70421;SHT31;57848;51.938;15.520;2023-06-22T06:02:49;22.54;76.04
70421;SHT31;57848;51.938;15.520;2023-06-22T06:05:15;22.54;75.59
70421;SHT31;57848;51.938;15.520;2023-06-22T06:07:45;22.61;75.92
70421;SHT31;57848;51.938;15.520;2023-06-22T06:10:10;22.61;75.77
70421;SHT31;57848;51.938;15.520;2023-06-22T06:12:36;22.61;75.30
70421;SHT31;57848;51.938;15.520;2023-06-22T06:15:02;22.65;75.76
70421;SHT31;57848;51.938;15.520;2023-06-22T06:17:28;22.72;75.72
70421;SHT31;57848;51.938;15.520;2023-06-22T06:19:53;22.78;75.57
70421;SHT31;57848;51.938;15.520;2023-06-22T06:22:19;22.85;74.83
70421;SHT31;57848;51.938;15.520;2023-06-22T06:24:46;22.92;74.88
70421;SHT31;57848;51.938;15.520;2023-06-22T06:27:12;23.02;74.78
70421;SHT31;57848;51.938;15.520;2023-06-22T06:29:38;22.99;74.96
70421;SHT31;57848;51.938;15.520;2023-06-22T06:32:03;23.03;74.31
70421;SHT31;57848;51.938;15.520;2023-06-22T06:34:29;23.06;75.10
70421;SHT31;57848;51.938;15.520;2023-06-22T06:36:54;23.12;74.38
70421;SHT31;57848;51.938;15.520;2023-06-22T06:39:20;23.19;73.95
70421;SHT31;57848;51.938;15.520;2023-06-22T06:41:46;23.24;73.95
70421;SHT31;57848;51.938;15.520;2023-06-22T06:44:14;23.32;73.89
70421;SHT31;57848;51.938;15.520;2023-06-22T06:46:39;23.32;73.21
70421;SHT31;57848;51.938;15.520;2023-06-22T06:49:05;23.39;73.72
70421;SHT31;57848;51.938;15.520;2023-06-22T06:51:30;23.47;72.95
70421;SHT31;57848;51.938;15.520;2023-06-22T06:53:56;23.47;73.68
70421;SHT31;57848;51.938;15.520;2023-06-22T06:56:21;23.49;73.44
70421;SHT31;57848;51.938;15.520;2023-06-22T06:58:50;23.60;73.26
70421;SHT31;57848;51.938;15.520;2023-06-22T07:01:15;23.67;73.46
70421;SHT31;57848;51.938;15.520;2023-06-22T07:03:41;23.74;72.70
70421;SHT31;57848;51.938;15.520;2023-06-22T07:06:06;23.81;72.41
70421;SHT31;57848;51.938;15.520;2023-06-22T07:08:31;23.85;72.36
70421;SHT31;57848;51.938;15.520;2023-06-22T07:10:57;23.97;71.17
70421;SHT31;57848;51.938;15.520;2023-06-22T07:13:23;23.90;71.18
70421;SHT31;57848;51.938;15.520;2023-06-22T07:15:48;23.90;71.49
70421;SHT31;57848;51.938;15.520;2023-06-22T07:18:14;23.97;71.62
70421;SHT31;57848;51.938;15.520;2023-06-22T07:20:39;24.12;70.24
70421;SHT31;57848;51.938;15.520;2023-06-22T07:23:06;24.22;70.05
70421;SHT31;57848;51.938;15.520;2023-06-22T07:25:31;24.31;69.45
70421;SHT31;57848;51.938;15.520;2023-06-22T07:27:58;24.41;69.23
70421;SHT31;57848;51.938;15.520;2023-06-22T07:30:24;24.43;68.79
70421;SHT31;57848;51.938;15.520;2023-06-22T07:32:50;24.48;68.61
70421;SHT31;57848;51.938;15.520;2023-06-22T07:35:15;24.56;67.85
70421;SHT31;57848;51.938;15.520;2023-06-22T07:37:42;24.65;67.17
70421;SHT31;57848;51.938;15.520;2023-06-22T07:40:08;24.87;65.82
70421;SHT31;57848;51.938;15.520;2023-06-22T07:42:33;24.83;66.27
70421;SHT31;57848;51.938;15.520;2023-06-22T07:44:59;24.96;67.02
70421;SHT31;57848;51.938;15.520;2023-06-22T07:47:24;25.11;66.85
70421;SHT31;57848;51.938;15.520;2023-06-22T07:49:54;25.11;66.01
70421;SHT31;57848;51.938;15.520;2023-06-22T07:52:20;25.13;65.28
70421;SHT31;57848;51.938;15.520;2023-06-22T07:54:46;25.18;65.03
70421;SHT31;57848;51.938;15.520;2023-06-22T07:57:12;25.03;64.68
70421;SHT31;57848;51.938;15.520;2023-06-22T07:59:37;25.16;64.12
70421;SHT31;57848;51.938;15.520;2023-06-22T08:02:03;25.23;65.92
70421;SHT31;57848;51.938;15.520;2023-06-22T08:04:29;25.28;65.37
70421;SHT31;57848;51.938;15.520;2023-06-22T08:06:57;25.38;65.07
70421;SHT31;57848;51.938;15.520;2023-06-22T08:09:22;25.26;65.85
70421;SHT31;57848;51.938;15.520;2023-06-22T08:11:47;25.30;64.66
70421;SHT31;57848;51.938;15.520;2023-06-22T08:14:14;25.27;64.34
70421;SHT31;57848;51.938;15.520;2023-06-22T08:16:41;25.18;63.99
70421;SHT31;57848;51.938;15.520;2023-06-22T08:19:07;25.23;64.36
70421;SHT31;57848;51.938;15.520;2023-06-22T08:21:32;25.13;64.25
70421;SHT31;57848;51.938;15.520;2023-06-22T08:36:03;25.79;58.27
70421;SHT31;57848;51.938;15.520;2023-06-22T08:38:31;25.86;57.32
70421;SHT31;57848;51.938;15.520;2023-06-22T08:40:57;25.85;56.33
70421;SHT31;57848;51.938;15.520;2023-06-22T08:43:22;25.98;57.67
70421;SHT31;57848;51.938;15.520;2023-06-22T08:45:48;25.90;58.12
70421;SHT31;57848;51.938;15.520;2023-06-22T08:48:14;25.93;57.54
70421;SHT31;57848;51.938;15.520;2023-06-22T08:50:39;26.05;57.25
70421;SHT31;57848;51.938;15.520;2023-06-22T08:53:05;26.10;55.96
70421;SHT31;57848;51.938;15.520;2023-06-22T08:55:31;26.19;55.11
70421;SHT31;57848;51.938;15.520;2023-06-22T08:57:57;26.25;55.32
70421;SHT31;57848;51.938;15.520;2023-06-22T09:00:22;26.43;55.44
70421;SHT31;57848;51.938;15.520;2023-06-22T09:02:48;26.57;53.11
70421;SHT31;57848;51.938;15.520;2023-06-22T09:05:13;26.65;52.17
70421;SHT31;57848;51.938;15.520;2023-06-22T09:07:39;26.70;50.98
70421;SHT31;57848;51.938;15.520;2023-06-22T09:10:06;26.83;50.06
70421;SHT31;57848;51.938;15.520;2023-06-22T09:12:31;26.80;49.50
70421;SHT31;57848;51.938;15.520;2023-06-22T09:14:59;26.80;51.67
70421;SHT31;57848;51.938;15.520;2023-06-22T09:17:28;26.87;51.19
70421;SHT31;57848;51.938;15.520;2023-06-22T09:19:53;26.99;51.49
70421;SHT31;57848;51.938;15.520;2023-06-22T09:22:19;27.28;50.74
70421;SHT31;57848;51.938;15.520;2023-06-22T09:24:44;27.47;51.28
70421;SHT31;57848;51.938;15.520;2023-06-22T09:27:10;27.66;48.84
70421;SHT31;57848;51.938;15.520;2023-06-22T09:29:35;27.79;49.21
70421;SHT31;57848;51.938;15.520;2023-06-22T09:32:01;27.90;49.05
70421;SHT31;57848;51.938;15.520;2023-06-22T09:34:27;27.97;47.65
70421;SHT31;57848;51.938;15.520;2023-06-22T09:36:52;28.04;49.67
70421;SHT31;57848;51.938;15.520;2023-06-22T09:39:18;28.28;49.27
70421;SHT31;57848;51.938;15.520;2023-06-22T09:41:44;28.48;48.67
70421;SHT31;57848;51.938;15.520;2023-06-22T09:44:09;28.56;47.89
70421;SHT31;57848;51.938;15.520;2023-06-22T09:46:35;28.82;47.32
70421;SHT31;57848;51.938;15.520;2023-06-22T09:49:00;28.74;46.00
70421;SHT31;57848;51.938;15.520;2023-06-22T09:51:25;29.02;47.39
70421;SHT31;57848;51.938;15.520;2023-06-22T09:53:51;29.29;45.91
70421;SHT31;57848;51.938;15.520;2023-06-22T09:56:17;29.30;45.67
70421;SHT31;57848;51.938;15.520;2023-06-22T09:58:44;29.43;45.46
70421;SHT31;57848;51.938;15.520;2023-06-22T10:01:10;29.60;46.06
70421;SHT31;57848;51.938;15.520;2023-06-22T10:03:36;29.85;45.53
70421;SHT31;57848;51.938;15.520;2023-06-22T10:06:01;30.13;44.05
70421;SHT31;57848;51.938;15.520;2023-06-22T10:08:27;30.06;44.60
70421;SHT31;57848;51.938;15.520;2023-06-22T10:10:52;29.98;43.98
70421;SHT31;57848;51.938;15.520;2023-06-22T10:13:18;29.53;44.61
70421;SHT31;57848;51.938;15.520;2023-06-22T10:15:44;29.61;44.83
70421;SHT31;57848;51.938;15.520;2023-06-22T10:18:17;29.68;44.90
70421;SHT31;57848;51.938;15.520;2023-06-22T10:20:43;29.47;44.93
70421;SHT31;57848;51.938;15.520;2023-06-22T10:23:08;29.53;44.24
70421;SHT31;57848;51.938;15.520;2023-06-22T10:25:34;29.35;45.21
70421;SHT31;57848;51.938;15.520;2023-06-22T10:27:59;29.37;44.82
70421;SHT31;57848;51.938;15.520;2023-06-22T10:30:25;29.44;45.31
70421;SHT31;57848;51.938;15.520;2023-06-22T10:32:50;29.46;44.07
70421;SHT31;57848;51.938;15.520;2023-06-22T10:35:15;30.01;44.43
70421;SHT31;57848;51.938;15.520;2023-06-22T10:37:44;30.60;42.19
70421;SHT31;57848;51.938;15.520;2023-06-22T10:40:14;31.79;41.03
70421;SHT31;57848;51.938;15.520;2023-06-22T10:42:40;32.27;40.39
70421;SHT31;57848;51.938;15.520;2023-06-22T10:45:06;32.94;37.85
70421;SHT31;57848;51.938;15.520;2023-06-22T10:47:32;33.65;36.99
70421;SHT31;57848;51.938;15.520;2023-06-22T10:49:58;34.33;35.89
70421;SHT31;57848;51.938;15.520;2023-06-22T10:52:23;34.59;35.14
70421;SHT31;57848;51.938;15.520;2023-06-22T10:54:48;35.07;34.64
70421;SHT31;57848;51.938;15.520;2023-06-22T10:57:14;35.37;34.69
70421;SHT31;57848;51.938;15.520;2023-06-22T10:59:39;36.09;34.27
70421;SHT31;57848;51.938;15.520;2023-06-22T11:02:04;35.55;34.35
70421;SHT31;57848;51.938;15.520;2023-06-22T11:04:30;36.63;34.10
70421;SHT31;57848;51.938;15.520;2023-06-22T11:06:55;37.04;32.49
70421;SHT31;57848;51.938;15.520;2023-06-22T11:09:21;37.00;32.41
70421;SHT31;57848;51.938;15.520;2023-06-22T11:11:47;37.69;31.39
70421;SHT31;57848;51.938;15.520;2023-06-22T11:14:13;37.04;32.29
70421;SHT31;57848;51.938;15.520;2023-06-22T11:16:38;36.72;33.21
70421;SHT31;57848;51.938;15.520;2023-06-22T11:19:05;35.78;34.32
70421;SHT31;57848;51.938;15.520;2023-06-22T11:21:30;36.12;34.89
70421;SHT31;57848;51.938;15.520;2023-06-22T11:23:57;35.67;35.12
70421;SHT31;57848;51.938;15.520;2023-06-22T11:26:22;34.71;34.97
70421;SHT31;57848;51.938;15.520;2023-06-22T11:28:49;34.17;36.22
70421;SHT31;57848;51.938;15.520;2023-06-22T11:31:14;33.45;37.21
70421;SHT31;57848;51.938;15.520;2023-06-22T11:33:39;32.91;39.03
70421;SHT31;57848;51.938;15.520;2023-06-22T11:36:05;32.56;39.02
70421;SHT31;57848;51.938;15.520;2023-06-22T11:38:30;32.27;38.05
70421;SHT31;57848;51.938;15.520;2023-06-22T11:40:58;32.17;40.21
70421;SHT31;57848;51.938;15.520;2023-06-22T11:43:23;32.06;39.73
70421;SHT31;57848;51.938;15.520;2023-06-22T11:45:49;33.11;38.60
70421;SHT31;57848;51.938;15.520;2023-06-22T11:48:14;33.52;38.60
70421;SHT31;57848;51.938;15.520;2023-06-22T11:50:39;33.29;38.85
70421;SHT31;57848;51.938;15.520;2023-06-22T11:53:05;33.14;38.90
70421;SHT31;57848;51.938;15.520;2023-06-22T11:55:30;32.98;38.36
70421;SHT31;57848;51.938;15.520;2023-06-22T11:57:57;32.63;39.01
70421;SHT31;57848;51.938;15.520;2023-06-22T12:00:28;32.29;39.19
70421;SHT31;57848;51.938;15.520;2023-06-22T12:02:55;32.27;39.32
70421;SHT31;57848;51.938;15.520;2023-06-22T12:05:21;32.26;39.27
70421;SHT31;57848;51.938;15.520;2023-06-22T12:07:47;32.26;39.19
70421;SHT31;57848;51.938;15.520;2023-06-22T12:10:13;32.60;39.36
70421;SHT31;57848;51.938;15.520;2023-06-22T12:12:38;32.78;38.82
70421;SHT31;57848;51.938;15.520;2023-06-22T12:15:04;32.77;38.72
70421;SHT31;57848;51.938;15.520;2023-06-22T12:17:30;33.02;39.09
70421;SHT31;57848;51.938;15.520;2023-06-22T12:19:55;33.49;37.42
70421;SHT31;57848;51.938;15.520;2023-06-22T12:22:21;33.87;36.13
70421;SHT31;57848;51.938;15.520;2023-06-22T12:24:46;34.55;35.80
70421;SHT31;57848;51.938;15.520;2023-06-22T12:27:11;35.84;35.28
70421;SHT31;57848;51.938;15.520;2023-06-22T12:29:37;36.62;34.64
70421;SHT31;57848;51.938;15.520;2023-06-22T12:32:02;37.69;31.62
70421;SHT31;57848;51.938;15.520;2023-06-22T12:34:28;38.20;31.81
70421;SHT31;57848;51.938;15.520;2023-06-22T12:36:53;39.08;30.84
70421;SHT31;57848;51.938;15.520;2023-06-22T12:39:19;39.22;30.05
70421;SHT31;57848;51.938;15.520;2023-06-22T12:41:45;38.25;30.88
70421;SHT31;57848;51.938;15.520;2023-06-22T12:44:10;38.71;30.45
70421;SHT31;57848;51.938;15.520;2023-06-22T12:46:36;38.32;30.62
70421;SHT31;57848;51.938;15.520;2023-06-22T12:49:03;37.85;31.30
70421;SHT31;57848;51.938;15.520;2023-06-22T12:51:29;37.18;31.38
70421;SHT31;57848;51.938;15.520;2023-06-22T12:53:55;37.45;31.54
70421;SHT31;57848;51.938;15.520;2023-06-22T12:56:21;37.00;32.49
70421;SHT31;57848;51.938;15.520;2023-06-22T12:58:46;37.49;32.17
70421;SHT31;57848;51.938;15.520;2023-06-22T13:01:11;38.06;30.73
70421;SHT31;57848;51.938;15.520;2023-06-22T13:03:37;37.47;31.29
70421;SHT31;57848;51.938;15.520;2023-06-22T13:06:02;36.27;33.50
70421;SHT31;57848;51.938;15.520;2023-06-22T13:08:29;35.36;34.66
70421;SHT31;57848;51.938;15.520;2023-06-22T13:10:54;34.64;35.51
70421;SHT31;57848;51.938;15.520;2023-06-22T13:13:23;34.99;34.68
70421;SHT31;57848;51.938;15.520;2023-06-22T13:15:50;35.27;35.26
70421;SHT31;57848;51.938;15.520;2023-06-22T13:18:15;35.26;34.83
70421;SHT31;57848;51.938;15.520;2023-06-22T13:20:41;35.23;34.19
70421;SHT31;57848;51.938;15.520;2023-06-22T13:23:06;35.55;34.15
70421;SHT31;57848;51.938;15.520;2023-06-22T13:25:31;36.00;33.38
70421;SHT31;57848;51.938;15.520;2023-06-22T13:27:57;36.97;32.04
70421;SHT31;57848;51.938;15.520;2023-06-22T13:30:22;37.74;31.32
70421;SHT31;57848;51.938;15.520;2023-06-22T13:32:47;38.26;30.69
70421;SHT31;57848;51.938;15.520;2023-06-22T13:35:13;39.19;30.62
70421;SHT31;57848;51.938;15.520;2023-06-22T13:37:38;39.39;29.52
70421;SHT31;57848;51.938;15.520;2023-06-22T13:40:05;38.80;29.94
70421;SHT31;57848;51.938;15.520;2023-06-22T13:42:32;37.82;30.71
70421;SHT31;57848;51.938;15.520;2023-06-22T13:44:57;36.84;31.59
70421;SHT31;57848;51.938;15.520;2023-06-22T13:47:22;36.60;32.19
70421;SHT31;57848;51.938;15.520;2023-06-22T13:49:49;35.90;32.26
70421;SHT31;57848;51.938;15.520;2023-06-22T13:52:14;35.69;33.07
70421;SHT31;57848;51.938;15.520;2023-06-22T13:54:40;35.07;33.86
70421;SHT31;57848;51.938;15.520;2023-06-22T13:57:05;34.91;35.04
70421;SHT31;57848;51.938;15.520;2023-06-22T13:59:31;34.61;35.14
70421;SHT31;57848;51.938;15.520;2023-06-22T14:01:56;34.44;35.09
70421;SHT31;57848;51.938;15.520;2023-06-22T14:04:25;34.40;35.46
70421;SHT31;57848;51.938;15.520;2023-06-22T14:06:50;34.11;35.06
70421;SHT31;57848;51.938;15.520;2023-06-22T14:09:15;33.86;35.17
70421;SHT31;57848;51.938;15.520;2023-06-22T14:11:41;33.56;36.03
70421;SHT31;57848;51.938;15.520;2023-06-22T14:14:06;33.63;36.07
70421;SHT31;57848;51.938;15.520;2023-06-22T14:16:31;33.50;36.69
70421;SHT31;57848;51.938;15.520;2023-06-22T14:18:57;33.26;36.17
70421;SHT31;57848;51.938;15.520;2023-06-22T14:21:22;33.32;36.59
70421;SHT31;57848;51.938;15.520;2023-06-22T14:23:47;33.19;37.12
70421;SHT31;57848;51.938;15.520;2023-06-22T14:26:17;33.53;36.67
70421;SHT31;57848;51.938;15.520;2023-06-22T14:28:44;33.65;36.08
70421;SHT31;57848;51.938;15.520;2023-06-22T14:31:13;33.77;36.18
70421;SHT31;57848;51.938;15.520;2023-06-22T14:33:39;33.84;35.85
70421;SHT31;57848;51.938;15.520;2023-06-22T14:36:04;33.50;35.90
70421;SHT31;57848;51.938;15.520;2023-06-22T14:38:30;33.18;36.72
70421;SHT31;57848;51.938;15.520;2023-06-22T14:40:55;33.11;36.99
70421;SHT31;57848;51.938;15.520;2023-06-22T14:43:21;33.02;37.38
70421;SHT31;57848;51.938;15.520;2023-06-22T14:45:46;32.77;37.86
70421;SHT31;57848;51.938;15.520;2023-06-22T14:48:11;32.71;38.42
70421;SHT31;57848;51.938;15.520;2023-06-22T14:50:36;32.60;38.01
70421;SHT31;57848;51.938;15.520;2023-06-22T14:53:02;32.29;37.64
70421;SHT31;57848;51.938;15.520;2023-06-22T14:55:27;32.20;38.71
70421;SHT31;57848;51.938;15.520;2023-06-22T14:57:52;32.14;38.09
70421;SHT31;57848;51.938;15.520;2023-06-22T15:00:18;31.99;38.20
70421;SHT31;57848;51.938;15.520;2023-06-22T15:02:44;31.75;38.44
70421;SHT31;57848;51.938;15.520;2023-06-22T15:05:09;31.58;38.30
70421;SHT31;57848;51.938;15.520;2023-06-22T15:07:34;31.43;38.69
70421;SHT31;57848;51.938;15.520;2023-06-22T15:10:00;31.49;40.14
70421;SHT31;57848;51.938;15.520;2023-06-22T15:12:25;31.48;39.10
70421;SHT31;57848;51.938;15.520;2023-06-22T15:14:50;31.55;40.44
70421;SHT31;57848;51.938;15.520;2023-06-22T15:17:16;31.48;38.68
70421;SHT31;57848;51.938;15.520;2023-06-22T15:19:41;31.37;38.89
70421;SHT31;57848;51.938;15.520;2023-06-22T15:22:07;31.35;39.65
70421;SHT31;57848;51.938;15.520;2023-06-22T15:24:33;31.61;39.28
70421;SHT31;57848;51.938;15.520;2023-06-22T15:27:00;31.62;38.80